sensor_id;sensor_type;location;lat;lon;timestamp;temperature;humidity
71177;DHT22;58877;51.992;4.504;2024-01-30T00:02:06;11.28;78.55
71177;DHT22;58877;51.992;4.504;2024-01-30T00:04:31;11.24;78.66
71177;DHT22;58877;51.992;4.504;2024-01-30T00:06:57;11.31;78.71
71177;DHT22;58877;51.992;4.504;2024-01-30T00:09:22;11.35;78.52
71177;DHT22;58877;51.992;4.504;2024-01-30T00:11:48;11.34;78.38
71177;DHT22;58877;51.992;4.504;2024-01-30T00:14:14;11.36;78.54
71177;DHT22;58877;51.992;4.504;2024-01-30T00:16:39;11.38;78.28
71177;DHT22;58877;51.992;4.504;2024-01-30T00:19:07;11.39;78.45
71177;DHT22;58877;51.992;4.504;2024-01-30T00:21:34;11.40;78.68
71177;DHT22;58877;51.992;4.504;2024-01-30T00:23:59;11.46;78.28
71177;DHT22;58877;51.992;4.504;2024-01-30T00:26:25;11.48;78.30
71177;DHT22;58877;51.992;4.504;2024-01-30T00:28:50;11.46;78.14
71177;DHT22;58877;51.992;4.504;2024-01-30T00:31:16;11.48;78.01
71177;DHT22;58877;51.992;4.504;2024-01-30T00:33:42;11.52;78.03
71177;DHT22;58877;51.992;4.504;2024-01-30T00:36:09;11.54;78.00
71177;DHT22;58877;51.992;4.504;2024-01-30T00:38:35;11.56;78.13
71177;DHT22;58877;51.992;4.504;2024-01-30T00:41:01;11.62;77.90
71177;DHT22;58877;51.992;4.504;2024-01-30T00:43:30;11.62;77.61
71177;DHT22;58877;51.992;4.504;2024-01-30T00:45:59;11.67;77.42
71177;DHT22;58877;51.992;4.504;2024-01-30T00:48:27;11.61;77.43
71177;DHT22;58877;51.992;4.504;2024-01-30T00:50:53;11.70;77.26
71177;DHT22;58877;51.992;4.504;2024-01-30T00:53:19;11.72;77.00
71177;DHT22;58877;51.992;4.504;2024-01-30T00:55:47;11.63;77.10
71177;DHT22;58877;51.992;4.504;2024-01-30T00:58:13;11.61;77.32
71177;DHT22;58877;51.992;4.504;2024-01-30T01:00:38;11.59;77.33
71177;DHT22;58877;51.992;4.504;2024-01-30T01:03:04;11.63;77.11
71177;DHT22;58877;51.992;4.504;2024-01-30T01:05:30;11.56;77.35
71177;DHT22;58877;51.992;4.504;2024-01-30T01:07:55;11.55;77.26
71177;DHT22;58877;51.992;4.504;2024-01-30T01:10:21;11.56;77.22
71177;DHT22;58877;51.992;4.504;2024-01-30T01:12:48;11.56;77.11
71177;DHT22;58877;51.992;4.504;2024-01-30T01:15:14;11.61;76.93
71177;DHT22;58877;51.992;4.504;2024-01-30T01:17:40;11.54;77.26
71177;DHT22;58877;51.992;4.504;2024-01-30T01:20:07;11.59;77.02
71177;DHT22;58877;51.992;4.504;2024-01-30T01:22:33;11.51;76.91
71177;DHT22;58877;51.992;4.504;2024-01-30T01:25:00;11.55;77.01
71177;DHT22;58877;51.992;4.504;2024-01-30T01:27:26;11.52;77.24
71177;DHT22;58877;51.992;4.504;2024-01-30T01:29:52;11.52;76.99
71177;DHT22;58877;51.992;4.504;2024-01-30T01:32:21;11.55;77.06
71177;DHT22;58877;51.992;4.504;2024-01-30T01:34:47;11.58;77.02
71177;DHT22;58877;51.992;4.504;2024-01-30T01:37:12;11.65;76.97
71177;DHT22;58877;51.992;4.504;2024-01-30T01:39:38;11.65;76.73
71177;DHT22;58877;51.992;4.504;2024-01-30T01:42:07;11.70;76.49
71177;DHT22;58877;51.992;4.504;2024-01-30T01:44:38;11.63;76.62
71177;DHT22;58877;51.992;4.504;2024-01-30T01:47:03;11.58;77.14
71177;DHT22;58877;51.992;4.504;2024-01-30T01:49:29;11.56;76.98
71177;DHT22;58877;51.992;4.504;2024-01-30T01:52:01;11.51;77.37
71177;DHT22;58877;51.992;4.504;2024-01-30T01:54:37;11.45;77.34
71177;DHT22;58877;51.992;4.504;2024-01-30T01:57:12;11.51;77.54
71177;DHT22;58877;51.992;4.504;2024-01-30T01:59:40;11.51;77.43
71177;DHT22;58877;51.992;4.504;2024-01-30T02:02:13;11.48;77.78
71177;DHT22;58877;51.992;4.504;2024-01-30T02:04:41;11.49;77.84
71177;DHT22;58877;51.992;4.504;2024-01-30T02:07:07;11.48;77.55
71177;DHT22;58877;51.992;4.504;2024-01-30T02:09:36;11.54;77.60
71177;DHT22;58877;51.992;4.504;2024-01-30T02:12:01;11.58;77.49
71177;DHT22;58877;51.992;4.504;2024-01-30T02:14:27;11.55;77.55
71177;DHT22;58877;51.992;4.504;2024-01-30T02:16:53;11.62;77.63
71177;DHT22;58877;51.992;4.504;2024-01-30T02:19:19;11.65;77.24
71177;DHT22;58877;51.992;4.504;2024-01-30T02:21:46;11.65;77.28
71177;DHT22;58877;51.992;4.504;2024-01-30T02:24:12;11.66;77.17
71177;DHT22;58877;51.992;4.504;2024-01-30T02:26:37;11.61;77.20
71177;DHT22;58877;51.992;4.504;2024-01-30T02:29:03;11.58;77.47
71177;DHT22;58877;51.992;4.504;2024-01-30T02:31:28;11.58;77.16
71177;DHT22;58877;51.992;4.504;2024-01-30T02:33:54;11.54;77.42
71177;DHT22;58877;51.992;4.504;2024-01-30T02:36:20;11.49;77.48
71177;DHT22;58877;51.992;4.504;2024-01-30T02:38:45;11.48;77.71
71177;DHT22;58877;51.992;4.504;2024-01-30T02:41:11;11.42;78.00
71177;DHT22;58877;51.992;4.504;2024-01-30T02:43:37;11.45;77.93
71177;DHT22;58877;51.992;4.504;2024-01-30T02:46:03;11.54;77.66
71177;DHT22;58877;51.992;4.504;2024-01-30T02:48:28;11.49;77.83
71177;DHT22;58877;51.992;4.504;2024-01-30T02:50:54;11.45;77.79
71177;DHT22;58877;51.992;4.504;2024-01-30T02:53:19;11.55;77.84
71177;DHT22;58877;51.992;4.504;2024-01-30T02:55:45;11.56;77.70
71177;DHT22;58877;51.992;4.504;2024-01-30T02:58:10;11.52;77.72
71177;DHT22;58877;51.992;4.504;2024-01-30T03:00:36;11.55;77.73
71177;DHT22;58877;51.992;4.504;2024-01-30T03:03:02;11.59;77.85
71177;DHT22;58877;51.992;4.504;2024-01-30T03:05:27;11.61;77.69
71177;DHT22;58877;51.992;4.504;2024-01-30T03:07:53;11.55;77.80
71177;DHT22;58877;51.992;4.504;2024-01-30T03:10:19;11.55;77.87
71177;DHT22;58877;51.992;4.504;2024-01-30T03:12:44;11.56;77.94
71177;DHT22;58877;51.992;4.504;2024-01-30T03:15:10;11.61;77.89
71177;DHT22;58877;51.992;4.504;2024-01-30T03:17:35;11.66;77.70
71177;DHT22;58877;51.992;4.504;2024-01-30T03:20:03;11.69;77.49
71177;DHT22;58877;51.992;4.504;2024-01-30T03:22:29;11.61;77.61
71177;DHT22;58877;51.992;4.504;2024-01-30T03:24:55;11.56;77.95
71177;DHT22;58877;51.992;4.504;2024-01-30T03:27:20;11.61;77.70
71177;DHT22;58877;51.992;4.504;2024-01-30T03:29:46;11.56;77.90
71177;DHT22;58877;51.992;4.504;2024-01-30T03:32:11;11.59;77.89
71177;DHT22;58877;51.992;4.504;2024-01-30T03:34:37;11.62;77.86
71177;DHT22;58877;51.992;4.504;2024-01-30T03:37:02;11.52;77.87
71177;DHT22;58877;51.992;4.504;2024-01-30T03:39:28;11.56;77.98
71177;DHT22;58877;51.992;4.504;2024-01-30T03:41:54;11.54;77.95
71177;DHT22;58877;51.992;4.504;2024-01-30T03:44:19;11.56;77.78
71177;DHT22;58877;51.992;4.504;2024-01-30T03:46:46;11.63;77.83
71177;DHT22;58877;51.992;4.504;2024-01-30T03:49:11;11.55;78.03
71177;DHT22;58877;51.992;4.504;2024-01-30T03:51:37;11.61;77.99
71177;DHT22;58877;51.992;4.504;2024-01-30T03:54:02;11.52;77.95
71177;DHT22;58877;51.992;4.504;2024-01-30T03:56:28;11.58;78.02
71177;DHT22;58877;51.992;4.504;2024-01-30T03:58:54;11.54;78.02
71177;DHT22;58877;51.992;4.504;2024-01-30T04:01:21;11.54;78.11
71177;DHT22;58877;51.992;4.504;2024-01-30T04:03:46;11.58;77.80
71177;DHT22;58877;51.992;4.504;2024-01-30T04:06:12;11.59;77.88
71177;DHT22;58877;51.992;4.504;2024-01-30T04:08:40;11.62;77.86
71177;DHT22;58877;51.992;4.504;2024-01-30T04:11:06;11.65;77.64
71177;DHT22;58877;51.992;4.504;2024-01-30T04:13:33;11.55;77.93
71177;DHT22;58877;51.992;4.504;2024-01-30T04:16:00;11.59;77.87
71177;DHT22;58877;51.992;4.504;2024-01-30T04:18:32;11.58;78.05
71177;DHT22;58877;51.992;4.504;2024-01-30T04:20:59;11.62;77.88
71177;DHT22;58877;51.992;4.504;2024-01-30T04:23:30;11.65;77.84
71177;DHT22;58877;51.992;4.504;2024-01-30T04:25:56;11.61;77.92
71177;DHT22;58877;51.992;4.504;2024-01-30T04:28:27;11.67;77.80
71177;DHT22;58877;51.992;4.504;2024-01-30T04:30:55;11.70;77.54
71177;DHT22;58877;51.992;4.504;2024-01-30T04:33:21;11.66;77.73
71177;DHT22;58877;51.992;4.504;2024-01-30T04:35:55;11.67;77.70
71177;DHT22;58877;51.992;4.504;2024-01-30T04:38:20;11.62;78.05
71177;DHT22;58877;51.992;4.504;2024-01-30T04:40:56;11.72;77.75
71177;DHT22;58877;51.992;4.504;2024-01-30T04:43:22;11.67;77.63
71177;DHT22;58877;51.992;4.504;2024-01-30T04:45:49;11.65;77.72
71177;DHT22;58877;51.992;4.504;2024-01-30T04:48:29;11.65;77.89
71177;DHT22;58877;51.992;4.504;2024-01-30T04:50:58;11.65;77.78
71177;DHT22;58877;51.992;4.504;2024-01-30T04:53:26;11.70;77.61
71177;DHT22;58877;51.992;4.504;2024-01-30T04:55:54;11.75;77.71
71177;DHT22;58877;51.992;4.504;2024-01-30T04:58:20;11.72;77.91
71177;DHT22;58877;51.992;4.504;2024-01-30T05:00:48;11.70;77.87
71177;DHT22;58877;51.992;4.504;2024-01-30T05:03:20;11.67;78.13
71177;DHT22;58877;51.992;4.504;2024-01-30T05:05:48;11.69;77.93
71177;DHT22;58877;51.992;4.504;2024-01-30T05:08:16;11.66;78.16
71177;DHT22;58877;51.992;4.504;2024-01-30T05:10:42;11.62;78.10
71177;DHT22;58877;51.992;4.504;2024-01-30T05:13:10;11.67;78.13
71177;DHT22;58877;51.992;4.504;2024-01-30T05:15:39;11.67;78.14
71177;DHT22;58877;51.992;4.504;2024-01-30T05:18:05;11.72;78.15
71177;DHT22;58877;51.992;4.504;2024-01-30T05:20:30;11.75;78.15
71177;DHT22;58877;51.992;4.504;2024-01-30T05:22:56;11.75;78.20
71177;DHT22;58877;51.992;4.504;2024-01-30T05:25:24;11.77;78.12
71177;DHT22;58877;51.992;4.504;2024-01-30T05:27:52;11.79;78.28
71177;DHT22;58877;51.992;4.504;2024-01-30T05:30:18;11.86;77.79
71177;DHT22;58877;51.992;4.504;2024-01-30T05:32:43;11.89;77.87
71177;DHT22;58877;51.992;4.504;2024-01-30T05:35:09;11.83;77.74
71177;DHT22;58877;51.992;4.504;2024-01-30T05:37:38;11.90;77.51
71177;DHT22;58877;51.992;4.504;2024-01-30T05:40:03;11.86;77.93
71177;DHT22;58877;51.992;4.504;2024-01-30T05:42:30;11.82;77.92
71177;DHT22;58877;51.992;4.504;2024-01-30T05:44:56;11.82;77.80
71177;DHT22;58877;51.992;4.504;2024-01-30T05:47:22;11.85;78.03
71177;DHT22;58877;51.992;4.504;2024-01-30T05:49:48;11.89;77.63
71177;DHT22;58877;51.992;4.504;2024-01-30T05:52:13;11.86;77.84
71177;DHT22;58877;51.992;4.504;2024-01-30T05:54:40;11.89;77.86
71177;DHT22;58877;51.992;4.504;2024-01-30T05:57:06;11.89;77.79
71177;DHT22;58877;51.992;4.504;2024-01-30T05:59:35;11.85;78.00
71177;DHT22;58877;51.992;4.504;2024-01-30T06:02:01;11.80;78.21
71177;DHT22;58877;51.992;4.504;2024-01-30T06:04:27;11.80;78.08
71177;DHT22;58877;51.992;4.504;2024-01-30T06:06:53;11.86;78.21
71177;DHT22;58877;51.992;4.504;2024-01-30T06:09:18;11.91;77.82
71177;DHT22;58877;51.992;4.504;2024-01-30T06:11:44;11.96;77.95
71177;DHT22;58877;51.992;4.504;2024-01-30T06:14:10;11.91;77.91
71177;DHT22;58877;51.992;4.504;2024-01-30T06:16:36;11.97;77.89
71177;DHT22;58877;51.992;4.504;2024-01-30T06:19:01;11.99;77.97
71177;DHT22;58877;51.992;4.504;2024-01-30T06:21:27;12.03;77.77
71177;DHT22;58877;51.992;4.504;2024-01-30T06:23:53;12.01;77.88
71177;DHT22;58877;51.992;4.504;2024-01-30T06:26:18;11.97;78.02
71177;DHT22;58877;51.992;4.504;2024-01-30T06:28:44;11.96;77.90
71177;DHT22;58877;51.992;4.504;2024-01-30T06:31:09;12.01;78.09
71177;DHT22;58877;51.992;4.504;2024-01-30T06:33:38;11.97;78.18
71177;DHT22;58877;51.992;4.504;2024-01-30T06:36:03;11.99;78.06
71177;DHT22;58877;51.992;4.504;2024-01-30T06:38:29;12.01;77.92
71177;DHT22;58877;51.992;4.504;2024-01-30T06:40:55;12.03;78.19
71177;DHT22;58877;51.992;4.504;2024-01-30T06:43:22;12.12;78.03
71177;DHT22;58877;51.992;4.504;2024-01-30T06:45:47;12.09;77.96
71177;DHT22;58877;51.992;4.504;2024-01-30T06:48:13;12.10;77.69
71177;DHT22;58877;51.992;4.504;2024-01-30T06:50:38;12.06;77.90
71177;DHT22;58877;51.992;4.504;2024-01-30T06:53:04;12.04;78.10
71177;DHT22;58877;51.992;4.504;2024-01-30T06:55:29;12.06;78.09
71177;DHT22;58877;51.992;4.504;2024-01-30T06:57:58;12.04;78.02
71177;DHT22;58877;51.992;4.504;2024-01-30T07:00:23;12.01;77.95
71177;DHT22;58877;51.992;4.504;2024-01-30T07:02:49;12.03;78.07
71177;DHT22;58877;51.992;4.504;2024-01-30T07:05:15;12.10;77.91
71177;DHT22;58877;51.992;4.504;2024-01-30T07:07:40;12.13;77.79
71177;DHT22;58877;51.992;4.504;2024-01-30T07:10:06;12.07;78.12
71177;DHT22;58877;51.992;4.504;2024-01-30T07:12:32;12.09;78.22
71177;DHT22;58877;51.992;4.504;2024-01-30T07:15:05;12.16;77.90
71177;DHT22;58877;51.992;4.504;2024-01-30T07:17:34;12.06;78.19
71177;DHT22;58877;51.992;4.504;2024-01-30T07:20:00;12.09;78.21
71177;DHT22;58877;51.992;4.504;2024-01-30T07:22:28;12.09;77.91
71177;DHT22;58877;51.992;4.504;2024-01-30T07:24:53;12.07;78.29
71177;DHT22;58877;51.992;4.504;2024-01-30T07:27:19;12.13;78.34
71177;DHT22;58877;51.992;4.504;2024-01-30T07:29:44;12.16;78.23
71177;DHT22;58877;51.992;4.504;2024-01-30T07:32:11;12.19;78.09
71177;DHT22;58877;51.992;4.504;2024-01-30T07:34:36;12.21;77.96
71177;DHT22;58877;51.992;4.504;2024-01-30T07:37:07;12.16;78.24
71177;DHT22;58877;51.992;4.504;2024-01-30T07:39:34;12.19;78.50
71177;DHT22;58877;51.992;4.504;2024-01-30T07:42:00;12.24;78.27
71177;DHT22;58877;51.992;4.504;2024-01-30T07:44:25;12.29;78.06
71177;DHT22;58877;51.992;4.504;2024-01-30T07:46:51;12.24;78.32
71177;DHT22;58877;51.992;4.504;2024-01-30T07:49:17;12.27;78.12
71177;DHT22;58877;51.992;4.504;2024-01-30T07:51:43;12.24;78.16
71177;DHT22;58877;51.992;4.504;2024-01-30T07:54:18;12.30;78.20
71177;DHT22;58877;51.992;4.504;2024-01-30T07:56:44;12.40;78.07
71177;DHT22;58877;51.992;4.504;2024-01-30T07:59:11;12.31;78.28
71177;DHT22;58877;51.992;4.504;2024-01-30T08:01:37;12.34;78.12
71177;DHT22;58877;51.992;4.504;2024-01-30T08:04:03;12.30;78.31
71177;DHT22;58877;51.992;4.504;2024-01-30T08:06:28;12.36;78.13
71177;DHT22;58877;51.992;4.504;2024-01-30T08:08:54;12.36;78.08
71177;DHT22;58877;51.992;4.504;2024-01-30T08:11:21;12.45;77.90
71177;DHT22;58877;51.992;4.504;2024-01-30T08:13:52;12.37;78.00
71177;DHT22;58877;51.992;4.504;2024-01-30T08:16:18;12.31;78.45
71177;DHT22;58877;51.992;4.504;2024-01-30T08:18:44;12.30;78.48
71177;DHT22;58877;51.992;4.504;2024-01-30T08:21:10;12.31;78.24
71177;DHT22;58877;51.992;4.504;2024-01-30T08:23:38;12.23;78.63
71177;DHT22;58877;51.992;4.504;2024-01-30T08:26:04;12.23;78.82
71177;DHT22;58877;51.992;4.504;2024-01-30T08:28:30;12.23;79.02
71177;DHT22;58877;51.992;4.504;2024-01-30T08:30:56;12.29;79.02
71177;DHT22;58877;51.992;4.504;2024-01-30T08:33:21;12.27;79.03
71177;DHT22;58877;51.992;4.504;2024-01-30T08:35:49;12.24;79.09
71177;DHT22;58877;51.992;4.504;2024-01-30T08:38:15;12.38;78.86
71177;DHT22;58877;51.992;4.504;2024-01-30T08:40:41;12.38;78.53
71177;DHT22;58877;51.992;4.504;2024-01-30T08:43:07;12.29;78.36
71177;DHT22;58877;51.992;4.504;2024-01-30T08:45:35;12.36;78.53
71177;DHT22;58877;51.992;4.504;2024-01-30T08:48:01;12.41;78.54
71177;DHT22;58877;51.992;4.504;2024-01-30T08:50:26;12.45;78.14
71177;DHT22;58877;51.992;4.504;2024-01-30T08:52:52;12.38;78.29
71177;DHT22;58877;51.992;4.504;2024-01-30T08:55:18;12.47;78.15
71177;DHT22;58877;51.992;4.504;2024-01-30T08:57:44;12.45;78.16
71177;DHT22;58877;51.992;4.504;2024-01-30T09:00:10;12.47;78.23
71177;DHT22;58877;51.992;4.504;2024-01-30T09:02:36;12.47;78.01
71177;DHT22;58877;51.992;4.504;2024-01-30T09:05:02;12.53;77.80
71177;DHT22;58877;51.992;4.504;2024-01-30T09:07:28;12.57;77.61
71177;DHT22;58877;51.992;4.504;2024-01-30T09:09:53;12.44;77.58
71177;DHT22;58877;51.992;4.504;2024-01-30T09:12:19;12.34;78.22
71177;DHT22;58877;51.992;4.504;2024-01-30T09:14:47;12.34;78.12
71177;DHT22;58877;51.992;4.504;2024-01-30T09:17:39;12.38;78.13
71177;DHT22;58877;51.992;4.504;2024-01-30T09:20:05;12.17;78.27
71177;DHT22;58877;51.992;4.504;2024-01-30T09:22:38;12.14;78.43
71177;DHT22;58877;51.992;4.504;2024-01-30T09:25:07;12.09;78.85
71177;DHT22;58877;51.992;4.504;2024-01-30T09:27:35;12.01;78.67
71177;DHT22;58877;51.992;4.504;2024-01-30T09:30:01;11.97;78.91
71177;DHT22;58877;51.992;4.504;2024-01-30T09:32:27;11.99;79.08
71177;DHT22;58877;51.992;4.504;2024-01-30T09:34:57;11.82;79.08
71177;DHT22;58877;51.992;4.504;2024-01-30T09:37:29;11.62;79.87
71177;DHT22;58877;51.992;4.504;2024-01-30T09:40:10;11.51;80.20
71177;DHT22;58877;51.992;4.504;2024-01-30T09:45:42;11.45;80.56
71177;DHT22;58877;51.992;4.504;2024-01-30T09:48:28;11.35;80.66
71177;DHT22;58877;51.992;4.504;2024-01-30T09:51:02;11.22;80.66
71177;DHT22;58877;51.992;4.504;2024-01-30T09:53:47;11.18;80.93
71177;DHT22;58877;51.992;4.504;2024-01-30T09:56:20;11.11;81.09
71177;DHT22;58877;51.992;4.504;2024-01-30T09:58:47;11.15;81.02
71177;DHT22;58877;51.992;4.504;2024-01-30T10:01:17;11.07;81.16
71177;DHT22;58877;51.992;4.504;2024-01-30T10:03:47;10.94;80.84
71177;DHT22;58877;51.992;4.504;2024-01-30T10:06:14;10.92;80.75
71177;DHT22;58877;51.992;4.504;2024-01-30T10:08:47;10.92;80.69
71177;DHT22;58877;51.992;4.504;2024-01-30T10:11:13;10.72;80.92
71177;DHT22;58877;51.992;4.504;2024-01-30T10:13:39;10.72;80.74
71177;DHT22;58877;51.992;4.504;2024-01-30T10:16:06;10.70;80.67
71177;DHT22;58877;51.992;4.504;2024-01-30T10:18:34;10.67;80.85
71177;DHT22;58877;51.992;4.504;2024-01-30T10:21:05;10.82;80.21
71177;DHT22;58877;51.992;4.504;2024-01-30T10:23:35;10.80;79.44
71177;DHT22;58877;51.992;4.504;2024-01-30T10:26:04;10.81;79.42
71177;DHT22;58877;51.992;4.504;2024-01-30T10:28:36;10.77;78.62
71177;DHT22;58877;51.992;4.504;2024-01-30T10:31:32;10.85;78.35
71177;DHT22;58877;51.992;4.504;2024-01-30T10:34:08;10.81;78.35
71177;DHT22;58877;51.992;4.504;2024-01-30T10:36:43;10.84;78.42
71177;DHT22;58877;51.992;4.504;2024-01-30T10:39:28;10.57;79.41
71177;DHT22;58877;51.992;4.504;2024-01-30T10:41:56;10.57;79.49
71177;DHT22;58877;51.992;4.504;2024-01-30T10:44:22;10.67;79.44
71177;DHT22;58877;51.992;4.504;2024-01-30T10:46:59;10.56;80.00
71177;DHT22;58877;51.992;4.504;2024-01-30T10:49:26;10.64;79.84
71177;DHT22;58877;51.992;4.504;2024-01-30T10:51:54;10.71;79.66
71177;DHT22;58877;51.992;4.504;2024-01-30T10:54:23;10.63;79.93
71177;DHT22;58877;51.992;4.504;2024-01-30T10:56:50;10.63;79.88
71177;DHT22;58877;51.992;4.504;2024-01-30T10:59:16;10.67;79.59
71177;DHT22;58877;51.992;4.504;2024-01-30T11:01:43;10.70;80.02
71177;DHT22;58877;51.992;4.504;2024-01-30T11:04:09;10.68;80.32
71177;DHT22;58877;51.992;4.504;2024-01-30T11:06:41;10.60;80.45
71177;DHT22;58877;51.992;4.504;2024-01-30T11:09:11;10.53;80.58
71177;DHT22;58877;51.992;4.504;2024-01-30T11:11:59;10.23;80.65
71177;DHT22;58877;51.992;4.504;2024-01-30T11:14:34;10.17;80.40
71177;DHT22;58877;51.992;4.504;2024-01-30T11:17:00;10.21;80.33
71177;DHT22;58877;51.992;4.504;2024-01-30T11:19:26;10.32;79.66
71177;DHT22;58877;51.992;4.504;2024-01-30T11:21:56;10.30;79.09
71177;DHT22;58877;51.992;4.504;2024-01-30T11:24:24;9.99;79.81
71177;DHT22;58877;51.992;4.504;2024-01-30T11:26:58;9.87;79.65
71177;DHT22;58877;51.992;4.504;2024-01-30T11:29:30;9.89;80.01
71177;DHT22;58877;51.992;4.504;2024-01-30T11:34:56;9.96;79.66
71177;DHT22;58877;51.992;4.504;2024-01-30T11:37:25;10.09;79.36
71177;DHT22;58877;51.992;4.504;2024-01-30T11:40:04;10.26;78.53
71177;DHT22;58877;51.992;4.504;2024-01-30T11:43:08;10.27;78.14
71177;DHT22;58877;51.992;4.504;2024-01-30T11:45:37;10.09;78.97
71177;DHT22;58877;51.992;4.504;2024-01-30T11:48:08;10.20;78.56
71177;DHT22;58877;51.992;4.504;2024-01-30T11:50:38;10.24;78.73
71177;DHT22;58877;51.992;4.504;2024-01-30T11:53:07;10.36;78.92
71177;DHT22;58877;51.992;4.504;2024-01-30T11:55:37;10.32;78.55
71177;DHT22;58877;51.992;4.504;2024-01-30T11:58:11;10.33;78.22
71177;DHT22;58877;51.992;4.504;2024-01-30T12:00:40;10.32;78.56
71177;DHT22;58877;51.992;4.504;2024-01-30T12:03:11;10.40;78.58
71177;DHT22;58877;51.992;4.504;2024-01-30T12:05:39;10.27;78.77
71177;DHT22;58877;51.992;4.504;2024-01-30T12:08:15;10.14;79.51
71177;DHT22;58877;51.992;4.504;2024-01-30T12:10:44;10.14;79.84
71177;DHT22;58877;51.992;4.504;2024-01-30T12:13:14;10.07;80.34
71177;DHT22;58877;51.992;4.504;2024-01-30T12:15:43;10.09;80.60
71177;DHT22;58877;51.992;4.504;2024-01-30T12:18:09;9.95;80.67
71177;DHT22;58877;51.992;4.504;2024-01-30T12:20:39;10.07;80.99
71177;DHT22;58877;51.992;4.504;2024-01-30T12:23:08;10.02;81.07
71177;DHT22;58877;51.992;4.504;2024-01-30T12:25:43;10.06;81.06
71177;DHT22;58877;51.992;4.504;2024-01-30T12:28:12;10.12;81.23
71177;DHT22;58877;51.992;4.504;2024-01-30T12:30:38;10.16;80.94
71177;DHT22;58877;51.992;4.504;2024-01-30T12:33:06;10.13;81.43
71177;DHT22;58877;51.992;4.504;2024-01-30T12:35:34;9.97;81.63
71177;DHT22;58877;51.992;4.504;2024-01-30T12:38:00;9.97;82.34
71177;DHT22;58877;51.992;4.504;2024-01-30T12:40:26;9.99;82.65
71177;DHT22;58877;51.992;4.504;2024-01-30T12:42:52;9.96;82.69
71177;DHT22;58877;51.992;4.504;2024-01-30T12:45:18;9.78;83.16
71177;DHT22;58877;51.992;4.504;2024-01-30T12:47:47;9.89;83.35
71177;DHT22;58877;51.992;4.504;2024-01-30T12:50:13;9.85;83.50
71177;DHT22;58877;51.992;4.504;2024-01-30T12:52:42;9.68;84.24
71177;DHT22;58877;51.992;4.504;2024-01-30T12:55:07;9.61;84.56
71177;DHT22;58877;51.992;4.504;2024-01-30T12:57:33;9.63;84.48
71177;DHT22;58877;51.992;4.504;2024-01-30T13:00:02;9.62;84.16
71177;DHT22;58877;51.992;4.504;2024-01-30T13:02:28;9.51;84.92
71177;DHT22;58877;51.992;4.504;2024-01-30T13:05:00;9.54;85.09
71177;DHT22;58877;51.992;4.504;2024-01-30T13:07:28;9.58;85.08
71177;DHT22;58877;51.992;4.504;2024-01-30T13:09:54;9.55;85.03
71177;DHT22;58877;51.992;4.504;2024-01-30T13:12:38;9.48;85.38
71177;DHT22;58877;51.992;4.504;2024-01-30T13:17:58;9.51;86.01
71177;DHT22;58877;51.992;4.504;2024-01-30T13:20:27;9.36;86.72
71177;DHT22;58877;51.992;4.504;2024-01-30T13:22:56;9.38;86.77
71177;DHT22;58877;51.992;4.504;2024-01-30T13:25:22;9.39;86.32
71177;DHT22;58877;51.992;4.504;2024-01-30T13:27:48;9.42;87.00
71177;DHT22;58877;51.992;4.504;2024-01-30T13:30:18;9.55;87.12
71177;DHT22;58877;51.992;4.504;2024-01-30T13:32:46;9.49;86.99
71177;DHT22;58877;51.992;4.504;2024-01-30T13:35:15;9.61;86.87
71177;DHT22;58877;51.992;4.504;2024-01-30T13:37:41;9.48;86.98
71177;DHT22;58877;51.992;4.504;2024-01-30T13:40:08;9.39;87.62
71177;DHT22;58877;51.992;4.504;2024-01-30T13:42:34;9.48;87.50
71177;DHT22;58877;51.992;4.504;2024-01-30T13:45:00;9.38;87.74
71177;DHT22;58877;51.992;4.504;2024-01-30T13:47:25;9.38;87.48
71177;DHT22;58877;51.992;4.504;2024-01-30T13:49:52;9.35;88.02
71177;DHT22;58877;51.992;4.504;2024-01-30T13:52:18;9.34;88.13
71177;DHT22;58877;51.992;4.504;2024-01-30T13:54:44;9.27;87.90
71177;DHT22;58877;51.992;4.504;2024-01-30T13:57:10;9.11;88.00
71177;DHT22;58877;51.992;4.504;2024-01-30T13:59:38;9.03;88.96
71177;DHT22;58877;51.992;4.504;2024-01-30T14:02:03;9.07;88.50
71177;DHT22;58877;51.992;4.504;2024-01-30T14:04:29;8.92;88.80
71177;DHT22;58877;51.992;4.504;2024-01-30T14:06:55;8.88;88.96
71177;DHT22;58877;51.992;4.504;2024-01-30T14:09:21;8.92;88.98
71177;DHT22;58877;51.992;4.504;2024-01-30T14:11:47;8.91;88.70
71177;DHT22;58877;51.992;4.504;2024-01-30T14:14:12;8.91;88.98
71177;DHT22;58877;51.992;4.504;2024-01-30T14:16:38;8.84;89.13
71177;DHT22;58877;51.992;4.504;2024-01-30T14:19:05;8.87;89.05
71177;DHT22;58877;51.992;4.504;2024-01-30T14:21:31;8.92;88.97
71177;DHT22;58877;51.992;4.504;2024-01-30T14:23:59;8.84;89.07
71177;DHT22;58877;51.992;4.504;2024-01-30T14:26:25;8.97;88.88
71177;DHT22;58877;51.992;4.504;2024-01-30T14:28:51;8.96;89.19
71177;DHT22;58877;51.992;4.504;2024-01-30T14:31:17;8.96;89.00
71177;DHT22;58877;51.992;4.504;2024-01-30T14:33:44;8.87;89.07
71177;DHT22;58877;51.992;4.504;2024-01-30T14:36:09;8.92;88.93
71177;DHT22;58877;51.992;4.504;2024-01-30T14:38:35;8.80;89.17
71177;DHT22;58877;51.992;4.504;2024-01-30T14:41:01;8.74;89.14
71177;DHT22;58877;51.992;4.504;2024-01-30T14:43:27;8.70;89.84
71177;DHT22;58877;51.992;4.504;2024-01-30T14:45:52;8.81;89.80
71177;DHT22;58877;51.992;4.504;2024-01-30T14:48:18;8.80;89.56
71177;DHT22;58877;51.992;4.504;2024-01-30T14:50:44;8.71;90.23
71177;DHT22;58877;51.992;4.504;2024-01-30T14:53:09;8.66;90.03
71177;DHT22;58877;51.992;4.504;2024-01-30T14:55:36;8.79;90.26
71177;DHT22;58877;51.992;4.504;2024-01-30T14:58:01;8.79;89.98
71177;DHT22;58877;51.992;4.504;2024-01-30T15:00:27;8.79;89.62
71177;DHT22;58877;51.992;4.504;2024-01-30T15:02:53;8.77;90.01
71177;DHT22;58877;51.992;4.504;2024-01-30T15:05:19;8.71;89.97
71177;DHT22;58877;51.992;4.504;2024-01-30T15:07:45;8.59;90.10
71177;DHT22;58877;51.992;4.504;2024-01-30T15:10:11;8.56;90.39
71177;DHT22;58877;51.992;4.504;2024-01-30T15:12:37;8.53;90.49
71177;DHT22;58877;51.992;4.504;2024-01-30T15:15:04;8.59;90.63
71177;DHT22;58877;51.992;4.504;2024-01-30T15:17:30;8.69;90.46
71177;DHT22;58877;51.992;4.504;2024-01-30T15:19:56;8.67;90.28
71177;DHT22;58877;51.992;4.504;2024-01-30T15:22:24;8.66;90.55
71177;DHT22;58877;51.992;4.504;2024-01-30T15:24:49;8.69;90.16
71177;DHT22;58877;51.992;4.504;2024-01-30T15:27:15;8.67;90.22
71177;DHT22;58877;51.992;4.504;2024-01-30T15:29:41;8.71;90.15
71177;DHT22;58877;51.992;4.504;2024-01-30T15:32:06;8.66;90.18
71177;DHT22;58877;51.992;4.504;2024-01-30T15:34:32;8.54;90.33
71177;DHT22;58877;51.992;4.504;2024-01-30T15:36:58;8.57;91.02
71177;DHT22;58877;51.992;4.504;2024-01-30T15:39:27;8.64;90.67
71177;DHT22;58877;51.992;4.504;2024-01-30T15:41:53;8.63;90.33
71177;DHT22;58877;51.992;4.504;2024-01-30T15:44:18;8.60;90.75
71177;DHT22;58877;51.992;4.504;2024-01-30T15:46:44;8.60;90.76